sensor_id;sensor_type;location;lat;lon;timestamp;P1;durP1;ratioP1;P2;durP2;ratioP2
71562;SDS011;59391;52.504;13.438;2022-10-23T00:01:26;12.88;;;8.25;;
71562;SDS011;59391;52.504;13.438;2022-10-23T00:04:02;17.42;;;9.27;;
71562;SDS011;59391;52.504;13.438;2022-10-23T00:06:40;14.30;;;8.10;;
71562;SDS011;59391;52.504;13.438;2022-10-23T00:09:07;15.82;;;8.07;;
71562;SDS011;59391;52.504;13.438;2022-10-23T00:11:36;15.73;;;9.35;;
71562;SDS011;59391;52.504;13.438;2022-10-23T00:14:03;22.90;;;12.60;;
71562;SDS011;59391;52.504;13.438;2022-10-23T00:16:31;13.82;;;8.65;;
71562;SDS011;59391;52.504;13.438;2022-10-23T00:18:58;13.50;;;7.72;;
71562;SDS011;59391;52.504;13.438;2022-10-23T00:21:24;14.18;;;8.20;;
71562;SDS011;59391;52.504;13.438;2022-10-23T00:23:50;13.23;;;7.60;;
71562;SDS011;59391;52.504;13.438;2022-10-23T00:26:16;16.05;;;9.07;;
71562;SDS011;59391;52.504;13.438;2022-10-23T00:28:42;13.95;;;8.20;;
71562;SDS011;59391;52.504;13.438;2022-10-23T00:31:10;13.63;;;8.00;;
71562;SDS011;59391;52.504;13.438;2022-10-23T00:33:37;13.73;;;7.93;;
71562;SDS011;59391;52.504;13.438;2022-10-23T00:36:04;13.65;;;7.68;;
71562;SDS011;59391;52.504;13.438;2022-10-23T00:38:31;16.67;;;7.78;;
71562;SDS011;59391;52.504;13.438;2022-10-23T00:40:57;15.55;;;7.32;;
71562;SDS011;59391;52.504;13.438;2022-10-23T00:43:25;12.17;;;7.47;;
71562;SDS011;59391;52.504;13.438;2022-10-23T00:45:53;22.35;;;12.45;;
71562;SDS011;59391;52.504;13.438;2022-10-23T00:48:20;17.50;;;7.90;;
71562;SDS011;59391;52.504;13.438;2022-10-23T00:50:47;12.52;;;7.47;;
71562;SDS011;59391;52.504;13.438;2022-10-23T00:53:14;11.88;;;7.60;;
71562;SDS011;59391;52.504;13.438;2022-10-23T00:55:42;14.20;;;8.60;;
71562;SDS011;59391;52.504;13.438;2022-10-23T00:58:15;14.55;;;8.07;;
71562;SDS011;59391;52.504;13.438;2022-10-23T01:00:49;16.05;;;9.77;;
71562;SDS011;59391;52.504;13.438;2022-10-23T01:03:20;12.93;;;8.45;;
71562;SDS011;59391;52.504;13.438;2022-10-23T01:05:53;14.85;;;8.70;;
71562;SDS011;59391;52.504;13.438;2022-10-23T01:08:49;13.88;;;8.32;;
71562;SDS011;59391;52.504;13.438;2022-10-23T01:11:46;12.10;;;7.10;;
71562;SDS011;59391;52.504;13.438;2022-10-23T01:28:29;19.80;;;12.20;;
71562;SDS011;59391;52.504;13.438;2022-10-23T01:31:32;15.23;;;9.45;;
71562;SDS011;59391;52.504;13.438;2022-10-23T01:34:19;21.90;;;13.65;;
71562;SDS011;59391;52.504;13.438;2022-10-23T01:36:54;15.07;;;9.02;;
71562;SDS011;59391;52.504;13.438;2022-10-23T01:39:26;22.58;;;16.20;;
71562;SDS011;59391;52.504;13.438;2022-10-23T01:42:02;16.33;;;9.25;;
71562;SDS011;59391;52.504;13.438;2022-10-23T01:44:37;11.95;;;8.07;;
71562;SDS011;59391;52.504;13.438;2022-10-23T01:47:18;21.05;;;12.05;;
71562;SDS011;59391;52.504;13.438;2022-10-23T01:49:55;16.50;;;10.00;;
71562;SDS011;59391;52.504;13.438;2022-10-23T01:52:23;14.68;;;8.30;;
71562;SDS011;59391;52.504;13.438;2022-10-23T01:55:10;14.77;;;7.60;;
71562;SDS011;59391;52.504;13.438;2022-10-23T01:57:38;12.02;;;7.82;;
71562;SDS011;59391;52.504;13.438;2022-10-23T02:00:10;13.00;;;7.72;;
71562;SDS011;59391;52.504;13.438;2022-10-23T02:02:40;14.70;;;8.75;;
71562;SDS011;59391;52.504;13.438;2022-10-23T02:05:16;14.20;;;8.48;;
71562;SDS011;59391;52.504;13.438;2022-10-23T02:07:47;12.02;;;7.78;;
71562;SDS011;59391;52.504;13.438;2022-10-23T02:10:14;14.48;;;8.50;;
71562;SDS011;59391;52.504;13.438;2022-10-23T02:15:35;18.02;;;11.18;;
71562;SDS011;59391;52.504;13.438;2022-10-23T02:20:52;14.00;;;8.10;;
71562;SDS011;59391;52.504;13.438;2022-10-23T02:23:34;13.38;;;7.10;;
71562;SDS011;59391;52.504;13.438;2022-10-23T02:26:15;10.32;;;7.10;;
71562;SDS011;59391;52.504;13.438;2022-10-23T02:28:52;13.32;;;7.45;;
71562;SDS011;59391;52.504;13.438;2022-10-23T02:31:28;18.05;;;11.07;;
71562;SDS011;59391;52.504;13.438;2022-10-23T02:33:57;17.10;;;9.40;;
71562;SDS011;59391;52.504;13.438;2022-10-23T02:36:22;13.75;;;8.90;;
71562;SDS011;59391;52.504;13.438;2022-10-23T02:38:48;14.00;;;7.85;;
71562;SDS011;59391;52.504;13.438;2022-10-23T02:44:27;11.68;;;7.30;;
71562;SDS011;59391;52.504;13.438;2022-10-23T02:47:27;12.90;;;6.88;;
71562;SDS011;59391;52.504;13.438;2022-10-23T02:50:28;13.53;;;7.60;;
71562;SDS011;59391;52.504;13.438;2022-10-23T02:56:01;12.75;;;7.70;;
71562;SDS011;59391;52.504;13.438;2022-10-23T02:58:45;11.45;;;6.93;;
71562;SDS011;59391;52.504;13.438;2022-10-23T03:01:26;12.38;;;7.30;;
71562;SDS011;59391;52.504;13.438;2022-10-23T03:04:03;13.43;;;7.27;;
71562;SDS011;59391;52.504;13.438;2022-10-23T03:06:32;12.90;;;7.50;;
71562;SDS011;59391;52.504;13.438;2022-10-23T03:08:59;12.25;;;7.30;;
71562;SDS011;59391;52.504;13.438;2022-10-23T03:11:33;13.85;;;7.30;;
71562;SDS011;59391;52.504;13.438;2022-10-23T03:13:59;12.60;;;7.03;;
71562;SDS011;59391;52.504;13.438;2022-10-23T03:16:24;13.75;;;7.35;;
71562;SDS011;59391;52.504;13.438;2022-10-23T03:18:50;12.15;;;7.38;;
71562;SDS011;59391;52.504;13.438;2022-10-23T03:21:16;11.27;;;7.60;;
71562;SDS011;59391;52.504;13.438;2022-10-23T03:23:45;12.73;;;7.25;;
71562;SDS011;59391;52.504;13.438;2022-10-23T03:26:11;12.37;;;6.97;;
71562;SDS011;59391;52.504;13.438;2022-10-23T03:28:36;11.05;;;6.68;;
71562;SDS011;59391;52.504;13.438;2022-10-23T03:31:02;13.40;;;7.10;;
71562;SDS011;59391;52.504;13.438;2022-10-23T03:33:28;12.13;;;6.80;;
71562;SDS011;59391;52.504;13.438;2022-10-23T03:35:55;11.25;;;7.05;;
71562;SDS011;59391;52.504;13.438;2022-10-23T03:38:21;13.20;;;7.53;;
71562;SDS011;59391;52.504;13.438;2022-10-23T03:40:47;12.33;;;6.93;;
71562;SDS011;59391;52.504;13.438;2022-10-23T03:43:12;14.63;;;7.30;;
71562;SDS011;59391;52.504;13.438;2022-10-23T03:45:38;13.70;;;7.97;;
71562;SDS011;59391;52.504;13.438;2022-10-23T03:48:06;13.45;;;7.80;;
71562;SDS011;59391;52.504;13.438;2022-10-23T03:50:32;13.73;;;7.33;;
71562;SDS011;59391;52.504;13.438;2022-10-23T03:52:58;12.57;;;7.40;;
71562;SDS011;59391;52.504;13.438;2022-10-23T03:55:24;12.05;;;7.22;;
71562;SDS011;59391;52.504;13.438;2022-10-23T03:57:51;12.87;;;6.87;;
71562;SDS011;59391;52.504;13.438;2022-10-23T04:00:23;14.65;;;7.88;;
71562;SDS011;59391;52.504;13.438;2022-10-23T04:02:48;11.90;;;7.10;;
71562;SDS011;59391;52.504;13.438;2022-10-23T04:05:14;10.90;;;7.30;;
71562;SDS011;59391;52.504;13.438;2022-10-23T04:07:40;11.15;;;7.07;;
71562;SDS011;59391;52.504;13.438;2022-10-23T04:10:06;13.87;;;7.77;;
71562;SDS011;59391;52.504;13.438;2022-10-23T04:12:33;11.77;;;7.22;;
71562;SDS011;59391;52.504;13.438;2022-10-23T04:14:59;13.07;;;7.55;;
71562;SDS011;59391;52.504;13.438;2022-10-23T04:17:24;12.70;;;7.40;;
71562;SDS011;59391;52.504;13.438;2022-10-23T04:19:50;13.43;;;7.95;;
71562;SDS011;59391;52.504;13.438;2022-10-23T04:22:16;12.33;;;7.80;;
71562;SDS011;59391;52.504;13.438;2022-10-23T04:24:41;17.23;;;10.77;;
71562;SDS011;59391;52.504;13.438;2022-10-23T04:27:10;12.13;;;7.43;;
71562;SDS011;59391;52.504;13.438;2022-10-23T04:29:37;12.90;;;7.20;;
71562;SDS011;59391;52.504;13.438;2022-10-23T04:32:08;11.27;;;7.35;;
71562;SDS011;59391;52.504;13.438;2022-10-23T04:34:34;13.85;;;7.72;;
71562;SDS011;59391;52.504;13.438;2022-10-23T04:37:00;14.95;;;7.85;;
71562;SDS011;59391;52.504;13.438;2022-10-23T04:39:25;12.77;;;6.97;;
71562;SDS011;59391;52.504;13.438;2022-10-23T04:41:51;13.53;;;7.60;;
71562;SDS011;59391;52.504;13.438;2022-10-23T04:44:17;12.70;;;7.40;;
71562;SDS011;59391;52.504;13.438;2022-10-23T04:46:43;12.93;;;7.65;;
71562;SDS011;59391;52.504;13.438;2022-10-23T04:49:09;16.13;;;7.73;;
71562;SDS011;59391;52.504;13.438;2022-10-23T04:51:35;13.80;;;7.15;;
71562;SDS011;59391;52.504;13.438;2022-10-23T04:54:02;12.80;;;7.70;;
71562;SDS011;59391;52.504;13.438;2022-10-23T04:56:28;14.57;;;7.82;;
71562;SDS011;59391;52.504;13.438;2022-10-23T04:58:54;12.55;;;7.90;;
71562;SDS011;59391;52.504;13.438;2022-10-23T05:01:19;12.00;;;7.00;;
71562;SDS011;59391;52.504;13.438;2022-10-23T05:03:48;14.00;;;8.15;;
71562;SDS011;59391;52.504;13.438;2022-10-23T05:06:18;14.63;;;7.93;;
71562;SDS011;59391;52.504;13.438;2022-10-23T05:08:44;14.03;;;7.73;;
71562;SDS011;59391;52.504;13.438;2022-10-23T05:11:10;13.75;;;7.88;;
71562;SDS011;59391;52.504;13.438;2022-10-23T05:13:36;11.88;;;7.70;;
71562;SDS011;59391;52.504;13.438;2022-10-23T05:16:01;12.13;;;7.57;;
71562;SDS011;59391;52.504;13.438;2022-10-23T05:18:29;11.68;;;7.40;;
71562;SDS011;59391;52.504;13.438;2022-10-23T05:21:09;13.45;;;8.13;;
71562;SDS011;59391;52.504;13.438;2022-10-23T05:23:47;14.85;;;8.70;;
71562;SDS011;59391;52.504;13.438;2022-10-23T05:26:13;14.05;;;8.35;;
71562;SDS011;59391;52.504;13.438;2022-10-23T05:28:39;13.67;;;7.50;;
71562;SDS011;59391;52.504;13.438;2022-10-23T05:31:04;15.98;;;9.63;;
71562;SDS011;59391;52.504;13.438;2022-10-23T05:33:36;17.23;;;10.10;;
71562;SDS011;59391;52.504;13.438;2022-10-23T05:36:06;19.30;;;11.30;;
71562;SDS011;59391;52.504;13.438;2022-10-23T05:38:33;21.00;;;13.18;;
71562;SDS011;59391;52.504;13.438;2022-10-23T05:41:00;26.50;;;15.75;;
71562;SDS011;59391;52.504;13.438;2022-10-23T05:43:25;20.83;;;13.50;;
71562;SDS011;59391;52.504;13.438;2022-10-23T05:45:55;18.48;;;11.70;;
71562;SDS011;59391;52.504;13.438;2022-10-23T05:48:21;24.02;;;14.07;;
71562;SDS011;59391;52.504;13.438;2022-10-23T05:50:47;18.80;;;12.20;;
71562;SDS011;59391;52.504;13.438;2022-10-23T05:53:13;24.63;;;14.85;;
71562;SDS011;59391;52.504;13.438;2022-10-23T05:55:38;19.17;;;11.38;;
71562;SDS011;59391;52.504;13.438;2022-10-23T05:58:04;19.75;;;11.23;;
71562;SDS011;59391;52.504;13.438;2022-10-23T06:00:30;18.98;;;12.13;;
71562;SDS011;59391;52.504;13.438;2022-10-23T06:02:58;16.25;;;10.65;;
71562;SDS011;59391;52.504;13.438;2022-10-23T06:05:24;17.42;;;10.95;;
71562;SDS011;59391;52.504;13.438;2022-10-23T06:07:50;16.70;;;10.57;;
71562;SDS011;59391;52.504;13.438;2022-10-23T06:10:25;16.25;;;9.40;;
71562;SDS011;59391;52.504;13.438;2022-10-23T06:12:55;18.63;;;9.32;;
71562;SDS011;59391;52.504;13.438;2022-10-23T06:15:20;15.63;;;9.40;;
71562;SDS011;59391;52.504;13.438;2022-10-23T06:17:46;15.48;;;9.52;;
71562;SDS011;59391;52.504;13.438;2022-10-23T06:20:11;18.40;;;9.77;;
71562;SDS011;59391;52.504;13.438;2022-10-23T06:22:37;15.18;;;9.05;;
71562;SDS011;59391;52.504;13.438;2022-10-23T06:25:03;15.57;;;8.97;;
71562;SDS011;59391;52.504;13.438;2022-10-23T06:27:29;18.30;;;9.30;;
71562;SDS011;59391;52.504;13.438;2022-10-23T06:29:54;13.33;;;8.87;;
71562;SDS011;59391;52.504;13.438;2022-10-23T06:32:20;14.27;;;8.48;;
71562;SDS011;59391;52.504;13.438;2022-10-23T06:34:55;16.42;;;9.57;;
71562;SDS011;59391;52.504;13.438;2022-10-23T06:37:21;15.15;;;8.93;;
71562;SDS011;59391;52.504;13.438;2022-10-23T06:39:46;15.15;;;9.07;;
71562;SDS011;59391;52.504;13.438;2022-10-23T06:42:12;14.87;;;9.17;;
71562;SDS011;59391;52.504;13.438;2022-10-23T06:44:37;15.17;;;9.50;;
71562;SDS011;59391;52.504;13.438;2022-10-23T06:47:03;15.23;;;9.55;;
71562;SDS011;59391;52.504;13.438;2022-10-23T06:49:29;17.60;;;9.52;;
71562;SDS011;59391;52.504;13.438;2022-10-23T06:51:55;14.43;;;8.67;;
71562;SDS011;59391;52.504;13.438;2022-10-23T06:54:20;17.07;;;9.60;;
71562;SDS011;59391;52.504;13.438;2022-10-23T06:56:46;22.48;;;13.32;;
71562;SDS011;59391;52.504;13.438;2022-10-23T06:59:12;18.77;;;10.00;;
71562;SDS011;59391;52.504;13.438;2022-10-23T07:01:38;14.75;;;9.57;;
71562;SDS011;59391;52.504;13.438;2022-10-23T07:04:03;15.45;;;10.30;;
71562;SDS011;59391;52.504;13.438;2022-10-23T07:06:29;14.43;;;9.03;;
71562;SDS011;59391;52.504;13.438;2022-10-23T07:08:55;16.60;;;9.77;;
71562;SDS011;59391;52.504;13.438;2022-10-23T07:11:20;16.90;;;9.40;;
71562;SDS011;59391;52.504;13.438;2022-10-23T07:13:46;15.53;;;9.77;;
71562;SDS011;59391;52.504;13.438;2022-10-23T07:16:16;17.33;;;9.68;;
71562;SDS011;59391;52.504;13.438;2022-10-23T07:18:47;15.80;;;9.83;;
71562;SDS011;59391;52.504;13.438;2022-10-23T07:21:33;14.25;;;9.73;;
71562;SDS011;59391;52.504;13.438;2022-10-23T07:24:00;14.75;;;10.00;;
71562;SDS011;59391;52.504;13.438;2022-10-23T07:26:26;14.85;;;9.90;;
71562;SDS011;59391;52.504;13.438;2022-10-23T07:28:56;14.80;;;8.98;;
71562;SDS011;59391;52.504;13.438;2022-10-23T07:31:23;25.27;;;14.00;;
71562;SDS011;59391;52.504;13.438;2022-10-23T07:33:50;17.95;;;10.95;;
71562;SDS011;59391;52.504;13.438;2022-10-23T07:36:17;16.33;;;10.45;;
71562;SDS011;59391;52.504;13.438;2022-10-23T07:38:43;15.90;;;10.00;;
71562;SDS011;59391;52.504;13.438;2022-10-23T07:41:10;14.00;;;9.10;;
71562;SDS011;59391;52.504;13.438;2022-10-23T07:43:36;18.13;;;12.43;;
71562;SDS011;59391;52.504;13.438;2022-10-23T07:46:02;15.02;;;9.88;;
71562;SDS011;59391;52.504;13.438;2022-10-23T07:48:33;16.63;;;9.60;;
71562;SDS011;59391;52.504;13.438;2022-10-23T07:51:11;13.88;;;9.07;;
71562;SDS011;59391;52.504;13.438;2022-10-23T07:53:39;14.63;;;9.75;;
71562;SDS011;59391;52.504;13.438;2022-10-23T07:56:11;12.43;;;8.95;;
71562;SDS011;59391;52.504;13.438;2022-10-23T07:58:38;12.77;;;8.82;;
71562;SDS011;59391;52.504;13.438;2022-10-23T08:01:05;15.30;;;9.53;;
71562;SDS011;59391;52.504;13.438;2022-10-23T08:03:44;16.67;;;9.02;;
71562;SDS011;59391;52.504;13.438;2022-10-23T08:06:10;13.68;;;9.32;;
71562;SDS011;59391;52.504;13.438;2022-10-23T08:08:36;15.77;;;9.93;;
71562;SDS011;59391;52.504;13.438;2022-10-23T08:11:02;15.27;;;10.67;;
71562;SDS011;59391;52.504;13.438;2022-10-23T08:13:27;13.52;;;9.27;;
71562;SDS011;59391;52.504;13.438;2022-10-23T08:15:53;12.70;;;8.30;;
71562;SDS011;59391;52.504;13.438;2022-10-23T08:18:19;15.15;;;8.75;;
71562;SDS011;59391;52.504;13.438;2022-10-23T08:20:46;15.57;;;9.20;;
71562;SDS011;59391;52.504;13.438;2022-10-23T08:23:12;12.98;;;9.32;;
71562;SDS011;59391;52.504;13.438;2022-10-23T08:25:42;15.85;;;9.13;;
71562;SDS011;59391;52.504;13.438;2022-10-23T08:28:09;15.43;;;9.35;;
71562;SDS011;59391;52.504;13.438;2022-10-23T08:30:36;15.95;;;10.30;;
71562;SDS011;59391;52.504;13.438;2022-10-23T08:33:03;13.15;;;8.25;;
71562;SDS011;59391;52.504;13.438;2022-10-23T08:35:30;12.88;;;8.45;;
71562;SDS011;59391;52.504;13.438;2022-10-23T08:38:00;12.65;;;8.15;;
71562;SDS011;59391;52.504;13.438;2022-10-23T08:40:26;11.47;;;7.57;;
71562;SDS011;59391;52.504;13.438;2022-10-23T08:43:00;11.60;;;7.97;;
71562;SDS011;59391;52.504;13.438;2022-10-23T08:48:15;13.50;;;8.00;;
71562;SDS011;59391;52.504;13.438;2022-10-23T08:50:46;10.20;;;6.95;;
71562;SDS011;59391;52.504;13.438;2022-10-23T08:56:21;23.48;;;13.75;;
71562;SDS011;59391;52.504;13.438;2022-10-23T09:04:37;10.88;;;6.07;;
71562;SDS011;59391;52.504;13.438;2022-10-23T09:10:14;10.30;;;5.53;;
71562;SDS011;59391;52.504;13.438;2022-10-23T09:13:03;10.23;;;5.35;;
71562;SDS011;59391;52.504;13.438;2022-10-23T09:16:12;9.85;;;5.53;;
71562;SDS011;59391;52.504;13.438;2022-10-23T09:18:53;10.10;;;5.67;;
71562;SDS011;59391;52.504;13.438;2022-10-23T09:21:23;9.50;;;5.43;;
71562;SDS011;59391;52.504;13.438;2022-10-23T09:23:52;10.30;;;5.30;;
71562;SDS011;59391;52.504;13.438;2022-10-23T09:26:18;9.60;;;5.22;;
71562;SDS011;59391;52.504;13.438;2022-10-23T09:28:49;11.03;;;6.27;;
71562;SDS011;59391;52.504;13.438;2022-10-23T09:31:48;9.02;;;5.78;;
71562;SDS011;59391;52.504;13.438;2022-10-23T09:34:29;8.90;;;5.15;;
71562;SDS011;59391;52.504;13.438;2022-10-23T09:36:59;10.50;;;5.72;;
71562;SDS011;59391;52.504;13.438;2022-10-23T09:39:41;9.68;;;4.82;;
71562;SDS011;59391;52.504;13.438;2022-10-23T09:42:19;9.33;;;4.23;;
71562;SDS011;59391;52.504;13.438;2022-10-23T09:44:49;8.88;;;4.60;;
71562;SDS011;59391;52.504;13.438;2022-10-23T09:47:18;8.90;;;5.13;;
71562;SDS011;59391;52.504;13.438;2022-10-23T09:49:52;9.55;;;4.88;;
71562;SDS011;59391;52.504;13.438;2022-10-23T09:52:21;9.37;;;6.60;;
71562;SDS011;59391;52.504;13.438;2022-10-23T09:55:02;8.52;;;4.63;;
71562;SDS011;59391;52.504;13.438;2022-10-23T09:57:44;10.77;;;4.90;;
71562;SDS011;59391;52.504;13.438;2022-10-23T10:00:15;9.40;;;4.70;;
71562;SDS011;59391;52.504;13.438;2022-10-23T10:02:57;7.07;;;4.13;;
71562;SDS011;59391;52.504;13.438;2022-10-23T10:05:27;7.03;;;4.03;;
71562;SDS011;59391;52.504;13.438;2022-10-23T10:07:55;8.90;;;4.32;;
71562;SDS011;59391;52.504;13.438;2022-10-23T10:10:50;9.10;;;4.45;;
71562;SDS011;59391;52.504;13.438;2022-10-23T10:54:56;12.40;;;4.33;;
71562;SDS011;59391;52.504;13.438;2022-10-23T10:57:55;6.88;;;4.32;;
71562;SDS011;59391;52.504;13.438;2022-10-23T11:00:32;7.70;;;4.70;;
71562;SDS011;59391;52.504;13.438;2022-10-23T11:03:02;9.73;;;4.95;;
71562;SDS011;59391;52.504;13.438;2022-10-23T11:06:14;7.25;;;4.72;;
71562;SDS011;59391;52.504;13.438;2022-10-23T11:08:44;9.33;;;5.37;;
71562;SDS011;59391;52.504;13.438;2022-10-23T11:11:23;8.38;;;5.38;;
71562;SDS011;59391;52.504;13.438;2022-10-23T11:14:17;9.45;;;5.07;;
71562;SDS011;59391;52.504;13.438;2022-10-23T11:16:51;11.85;;;5.15;;
71562;SDS011;59391;52.504;13.438;2022-10-23T11:19:53;9.20;;;5.30;;
71562;SDS011;59391;52.504;13.438;2022-10-23T11:22:32;8.75;;;4.80;;
71562;SDS011;59391;52.504;13.438;2022-10-23T11:28:03;7.90;;;4.70;;
71562;SDS011;59391;52.504;13.438;2022-10-23T11:36:56;7.15;;;4.47;;
71562;SDS011;59391;52.504;13.438;2022-10-23T11:39:29;9.05;;;4.00;;
71562;SDS011;59391;52.504;13.438;2022-10-23T11:44:42;9.10;;;4.37;;
71562;SDS011;59391;52.504;13.438;2022-10-23T11:50:26;7.30;;;3.80;;
71562;SDS011;59391;52.504;13.438;2022-10-23T11:58:42;7.95;;;3.50;;
71562;SDS011;59391;52.504;13.438;2022-10-23T12:01:35;6.32;;;3.75;;
71562;SDS011;59391;52.504;13.438;2022-10-23T12:06:41;7.90;;;3.73;;
71562;SDS011;59391;52.504;13.438;2022-10-23T12:09:21;16.92;;;9.30;;
71562;SDS011;59391;52.504;13.438;2022-10-23T12:12:24;7.72;;;3.72;;
71562;SDS011;59391;52.504;13.438;2022-10-23T12:15:15;7.22;;;3.08;;
71562;SDS011;59391;52.504;13.438;2022-10-23T12:17:46;8.55;;;3.40;;
71562;SDS011;59391;52.504;13.438;2022-10-23T12:20:18;6.37;;;3.43;;
71562;SDS011;59391;52.504;13.438;2022-10-23T12:23:04;7.90;;;3.42;;
71562;SDS011;59391;52.504;13.438;2022-10-23T12:26:19;8.32;;;3.22;;
71562;SDS011;59391;52.504;13.438;2022-10-23T12:29:33;7.15;;;3.42;;
71562;SDS011;59391;52.504;13.438;2022-10-23T12:34:58;7.03;;;3.73;;
71562;SDS011;59391;52.504;13.438;2022-10-23T12:37:44;7.40;;;2.95;;
71562;SDS011;59391;52.504;13.438;2022-10-23T12:40:44;6.38;;;2.92;;
71562;SDS011;59391;52.504;13.438;2022-10-23T12:43:25;7.70;;;3.30;;
71562;SDS011;59391;52.504;13.438;2022-10-23T12:46:00;6.43;;;3.30;;
71562;SDS011;59391;52.504;13.438;2022-10-23T12:48:49;6.03;;;3.13;;
71562;SDS011;59391;52.504;13.438;2022-10-23T12:51:27;6.05;;;3.17;;
71562;SDS011;59391;52.504;13.438;2022-10-23T12:53:56;6.13;;;3.35;;
71562;SDS011;59391;52.504;13.438;2022-10-23T12:56:23;6.43;;;3.38;;
71562;SDS011;59391;52.504;13.438;2022-10-23T12:58:51;8.68;;;3.50;;
71562;SDS011;59391;52.504;13.438;2022-10-23T13:01:25;5.47;;;3.00;;
71562;SDS011;59391;52.504;13.438;2022-10-23T13:03:55;8.88;;;4.18;;
71562;SDS011;59391;52.504;13.438;2022-10-23T13:06:26;7.35;;;3.22;;
71562;SDS011;59391;52.504;13.438;2022-10-23T13:08:52;7.10;;;3.35;;
71562;SDS011;59391;52.504;13.438;2022-10-23T13:11:19;6.68;;;3.67;;
71562;SDS011;59391;52.504;13.438;2022-10-23T13:13:46;6.70;;;4.03;;
71562;SDS011;59391;52.504;13.438;2022-10-23T13:16:13;8.55;;;4.07;;
71562;SDS011;59391;52.504;13.438;2022-10-23T13:18:47;6.18;;;3.20;;
71562;SDS011;59391;52.504;13.438;2022-10-23T13:21:15;7.80;;;3.17;;
71562;SDS011;59391;52.504;13.438;2022-10-23T13:23:51;5.15;;;2.90;;
71562;SDS011;59391;52.504;13.438;2022-10-23T13:26:29;6.80;;;3.17;;
71562;SDS011;59391;52.504;13.438;2022-10-23T13:29:21;6.93;;;3.13;;
71562;SDS011;59391;52.504;13.438;2022-10-23T13:31:54;8.52;;;3.08;;
71562;SDS011;59391;52.504;13.438;2022-10-23T13:34:25;7.95;;;2.92;;
71562;SDS011;59391;52.504;13.438;2022-10-23T13:39:44;8.30;;;3.10;;
71562;SDS011;59391;52.504;13.438;2022-10-23T13:42:13;9.77;;;2.95;;
71562;SDS011;59391;52.504;13.438;2022-10-23T13:44:40;5.53;;;2.80;;
71562;SDS011;59391;52.504;13.438;2022-10-23T13:47:10;6.77;;;2.93;;
71562;SDS011;59391;52.504;13.438;2022-10-23T13:49:37;9.88;;;2.75;;
71562;SDS011;59391;52.504;13.438;2022-10-23T13:52:02;6.70;;;2.80;;
71562;SDS011;59391;52.504;13.438;2022-10-23T13:54:28;8.07;;;3.13;;
71562;SDS011;59391;52.504;13.438;2022-10-23T13:56:54;5.68;;;2.72;;
71562;SDS011;59391;52.504;13.438;2022-10-23T13:59:23;7.82;;;3.00;;
71562;SDS011;59391;52.504;13.438;2022-10-23T14:01:49;6.73;;;3.23;;
71562;SDS011;59391;52.504;13.438;2022-10-23T14:04:16;7.15;;;3.05;;
71562;SDS011;59391;52.504;13.438;2022-10-23T14:06:42;7.07;;;3.30;;
71562;SDS011;59391;52.504;13.438;2022-10-23T14:09:15;7.73;;;3.23;;
71562;SDS011;59391;52.504;13.438;2022-10-23T14:11:42;7.55;;;3.10;;
71562;SDS011;59391;52.504;13.438;2022-10-23T14:14:09;6.78;;;2.80;;
71562;SDS011;59391;52.504;13.438;2022-10-23T14:16:34;10.73;;;3.10;;
71562;SDS011;59391;52.504;13.438;2022-10-23T14:19:00;8.17;;;3.10;;
71562;SDS011;59391;52.504;13.438;2022-10-23T14:21:26;6.77;;;3.47;;
71562;SDS011;59391;52.504;13.438;2022-10-23T14:23:52;6.88;;;3.10;;
71562;SDS011;59391;52.504;13.438;2022-10-23T14:26:22;7.03;;;3.22;;
71562;SDS011;59391;52.504;13.438;2022-10-23T14:28:55;7.13;;;2.97;;
71562;SDS011;59391;52.504;13.438;2022-10-23T14:31:23;7.38;;;3.63;;
71562;SDS011;59391;52.504;13.438;2022-10-23T14:33:50;6.88;;;3.65;;
71562;SDS011;59391;52.504;13.438;2022-10-23T14:36:19;9.82;;;5.00;;
71562;SDS011;59391;52.504;13.438;2022-10-23T14:38:46;14.93;;;4.00;;
71562;SDS011;59391;52.504;13.438;2022-10-23T14:41:13;6.63;;;3.37;;
71562;SDS011;59391;52.504;13.438;2022-10-23T14:43:41;7.00;;;3.83;;
71562;SDS011;59391;52.504;13.438;2022-10-23T14:46:08;6.75;;;3.63;;
71562;SDS011;59391;52.504;13.438;2022-10-23T14:48:41;9.98;;;3.90;;
71562;SDS011;59391;52.504;13.438;2022-10-23T14:51:21;9.55;;;3.70;;
71562;SDS011;59391;52.504;13.438;2022-10-23T14:53:53;8.17;;;4.00;;
71562;SDS011;59391;52.504;13.438;2022-10-23T14:56:21;7.25;;;3.60;;
71562;SDS011;59391;52.504;13.438;2022-10-23T14:58:47;9.57;;;3.47;;
71562;SDS011;59391;52.504;13.438;2022-10-23T15:01:13;8.38;;;3.95;;
71562;SDS011;59391;52.504;13.438;2022-10-23T15:03:38;7.63;;;3.90;;
71562;SDS011;59391;52.504;13.438;2022-10-23T15:06:05;7.13;;;3.90;;
71562;SDS011;59391;52.504;13.438;2022-10-23T15:08:32;6.87;;;3.67;;
71562;SDS011;59391;52.504;13.438;2022-10-23T15:10:59;11.18;;;5.00;;
71562;SDS011;59391;52.504;13.438;2022-10-23T15:13:26;9.35;;;4.90;;
71562;SDS011;59391;52.504;13.438;2022-10-23T15:16:04;8.07;;;4.60;;
71562;SDS011;59391;52.504;13.438;2022-10-23T15:18:33;9.40;;;5.53;;
71562;SDS011;59391;52.504;13.438;2022-10-23T15:21:00;8.73;;;4.68;;
71562;SDS011;59391;52.504;13.438;2022-10-23T15:23:29;10.88;;;4.50;;
71562;SDS011;59391;52.504;13.438;2022-10-23T15:25:59;7.78;;;4.35;;
71562;SDS011;59391;52.504;13.438;2022-10-23T15:28:29;9.23;;;4.23;;
71562;SDS011;59391;52.504;13.438;2022-10-23T15:30:55;9.93;;;4.20;;
71562;SDS011;59391;52.504;13.438;2022-10-23T15:33:21;8.25;;;4.53;;
71562;SDS011;59391;52.504;13.438;2022-10-23T15:35:48;9.73;;;3.97;;
71562;SDS011;59391;52.504;13.438;2022-10-23T15:38:16;7.68;;;4.20;;
71562;SDS011;59391;52.504;13.438;2022-10-23T15:40:41;7.90;;;3.90;;
71562;SDS011;59391;52.504;13.438;2022-10-23T15:43:09;7.97;;;3.92;;
71562;SDS011;59391;52.504;13.438;2022-10-23T15:45:38;8.65;;;4.20;;
71562;SDS011;59391;52.504;13.438;2022-10-23T15:48:05;8.63;;;3.80;;
71562;SDS011;59391;52.504;13.438;2022-10-23T15:50:31;7.10;;;3.83;;
71562;SDS011;59391;52.504;13.438;2022-10-23T15:52:58;9.80;;;4.80;;
71562;SDS011;59391;52.504;13.438;2022-10-23T15:55:23;8.98;;;4.13;;
71562;SDS011;59391;52.504;13.438;2022-10-23T15:57:52;9.43;;;4.43;;
71562;SDS011;59391;52.504;13.438;2022-10-23T16:00:19;9.00;;;5.35;;
71562;SDS011;59391;52.504;13.438;2022-10-23T16:02:45;7.53;;;4.43;;
71562;SDS011;59391;52.504;13.438;2022-10-23T16:05:10;8.60;;;4.72;;
71562;SDS011;59391;52.504;13.438;2022-10-23T16:07:36;9.93;;;4.67;;
71562;SDS011;59391;52.504;13.438;2022-10-23T16:10:02;8.48;;;4.60;;
71562;SDS011;59391;52.504;13.438;2022-10-23T16:12:28;8.65;;;5.30;;
71562;SDS011;59391;52.504;13.438;2022-10-23T16:14:53;9.73;;;4.80;;
71562;SDS011;59391;52.504;13.438;2022-10-23T16:17:19;9.60;;;4.75;;
71562;SDS011;59391;52.504;13.438;2022-10-23T16:19:44;11.30;;;4.60;;
71562;SDS011;59391;52.504;13.438;2022-10-23T16:22:10;9.30;;;5.00;;
71562;SDS011;59391;52.504;13.438;2022-10-23T16:24:40;11.57;;;5.67;;
71562;SDS011;59391;52.504;13.438;2022-10-23T16:27:05;8.98;;;4.70;;
71562;SDS011;59391;52.504;13.438;2022-10-23T16:29:31;8.57;;;4.77;;
71562;SDS011;59391;52.504;13.438;2022-10-23T16:31:57;10.38;;;4.78;;
71562;SDS011;59391;52.504;13.438;2022-10-23T16:34:23;8.85;;;5.90;;
71562;SDS011;59391;52.504;13.438;2022-10-23T16:36:49;9.80;;;5.47;;
71562;SDS011;59391;52.504;13.438;2022-10-23T16:39:16;12.15;;;6.10;;